Princeton, Texas
Current Conditions -  °F | °C
As of 1:53 PM on Wednesday 26 Nov 2014 (Local Time) from KTKI Reporting Station
Clear Clear  
Wind Chill: 63°   Ceiling: Unl
Heat Index: 63°   Visibility: 10mi
Dew Point: 33°   Wind: 13mph
Humidity: 33%   Direction: 340°NNW
Pressure: 30.16"   Gusts: NA
Location:  33.18°N, 96.5°W
Report Text: KTKI 261953Z 34011KT 10SM CLR 17/01 A3016 RMK AO2 SLP223 T01720006
Loading
Personal Weather Stations






























Interactive Weather Map New forecast layout! Learn more

10-Day Weather Forecast

Advertisements
Track Severe Weather on mobile